Time;durP1;ratioP1;P1;durP2;ratioP2;P2;SDS_P1;SDS_P2;PMS_P1;PMS_P2;Temp;Humidity;BMP_temperature;BMP_pressure;BME280_temperature;BME280_humidity;BME280_pressure;Samples;Min_cycle;Max_cycle;Signal;HPM_P1;HPM_P2
2023/12/24 00:00:14;;;;;;;;;1.33;1.33;;;;;12.02;73.66;101475.59;4996085;28;45293;-49
2023/12/24 00:02:39;;;;;;;;;4.67;2.00;;;;;11.99;73.46;101472.22;4995662;28;46985;-52
2023/12/24 00:05:05;;;;;;;;;4.00;2.00;;;;;11.96;73.47;101468.97;4995661;28;45279;-50
2023/12/24 00:07:30;;;;;;;;;2.33;2.33;;;;;11.99;73.49;101469.56;4995899;28;45332;-52
2023/12/24 00:09:55;;;;;;;;;4.00;2.00;;;;;12.00;73.43;101467.72;4996109;28;45304;-51
2023/12/24 00:12:21;;;;;;;;;3.00;3.00;;;;;11.99;74.08;101469.56;4995493;28;45987;-54
2023/12/24 00:14:46;;;;;;;;;3.00;3.00;;;;;11.97;73.77;101468.03;4995913;28;45449;-55
2023/12/24 00:17:12;;;;;;;;;2.00;2.00;;;;;11.93;74.04;101455.94;4994708;28;45808;-56
2023/12/24 00:19:37;;;;;;;;;3.67;3.00;;;;;12.00;74.30;101473.06;4994468;28;45602;-56
2023/12/24 00:22:05;;;;;;;;;3.33;2.00;;;;;12.03;73.87;101485.28;4996927;28;46803;-55
2023/12/24 00:24:30;;;;;;;;;4.00;3.00;;;;;12.02;74.36;101475.59;4998884;28;45216;-52
2023/12/24 00:26:55;;;;;;;;;6.00;3.33;;;;;12.05;74.45;101478.84;4998970;28;45555;-53
2023/12/24 00:29:21;;;;;;;;;4.67;3.00;;;;;12.05;74.36;101473.50;4999223;28;45322;-54
2023/12/24 00:31:46;;;;;;;;;3.00;3.00;;;;;12.07;74.33;101474.19;4998720;28;45579;-55
2023/12/24 00:34:11;;;;;;;;;4.00;2.33;;;;;12.06;74.48;101469.00;4998631;28;45222;-56
2023/12/24 00:36:37;;;;;;;;;2.00;2.00;;;;;12.06;74.32;101469.00;4998641;28;45549;-55
2023/12/24 00:39:02;;;;;;;;;2.00;2.00;;;;;12.03;74.26;101469.28;4999102;28;45248;-50
2023/12/24 00:41:30;;;;;;;;;2.00;2.00;;;;;12.04;73.65;101471.81;4998655;28;46011;-52
2023/12/24 00:43:55;;;;;;;;;2.00;2.00;;;;;12.06;74.15;101472.53;4998186;28;45597;-53
2023/12/24 00:46:21;;;;;;;;;2.00;2.00;;;;;12.06;73.57;101464.53;4998559;28;45247;-55
2023/12/24 00:48:46;;;;;;;;;4.00;2.00;;;;;12.06;73.84;101463.69;4998726;28;45563;-55
2023/12/24 00:51:11;;;;;;;;;2.00;2.00;;;;;12.02;74.07;101455.13;4997150;28;46070;-56
2023/12/24 00:53:37;;;;;;;;;1.00;1.00;;;;;12.03;73.54;101440.78;4998445;28;45456;-54
2023/12/24 00:56:02;;;;;;;;;2.00;2.00;;;;;12.01;73.70;101450.78;4998464;28;45350;-55
2023/12/24 00:58:27;;;;;;;;;2.33;2.00;;;;;12.02;73.43;101430.28;4998638;28;45474;-55
2023/12/24 01:00:53;;;;;;;;;3.00;2.00;;;;;11.99;73.88;101423.38;4998119;28;45475;-55
2023/12/24 01:03:18;;;;;;;;;2.00;2.00;;;;;12.01;73.22;101434.78;4998080;28;45383;-55
2023/12/24 01:05:44;;;;;;;;;3.00;2.00;;;;;12.01;73.57;101442.78;4998551;28;45317;-54
2023/12/24 01:08:09;;;;;;;;;3.00;2.00;;;;;11.98;73.17;101427.88;4997112;28;45373;-54
2023/12/24 01:10:34;;;;;;;;;1.00;1.00;;;;;11.99;73.81;101431.38;4998110;28;47263;-55
2023/12/24 01:13:00;;;;;;;;;4.00;2.67;;;;;11.93;73.58;101422.13;4998192;28;45327;-55
2023/12/24 01:15:25;;;;;;;;;3.00;1.33;;;;;11.97;73.18;101425.38;4998045;28;45412;-56
2023/12/24 01:17:50;;;;;;;;;1.00;1.00;;;;;11.97;73.60;101444.88;4998363;28;45272;-55
2023/12/24 01:20:16;;;;;;;;;1.00;1.00;;;;;11.96;73.37;101437.81;4997809;28;45779;-56
2023/12/24 01:22:42;;;;;;;;;3.33;3.33;;;;;11.96;74.05;101439.66;4998072;28;45584;-56
2023/12/24 01:25:09;;;;;;;;;2.00;2.00;;;;;11.97;73.88;101450.19;4998254;28;45275;-55
2023/12/24 01:27:35;;;;;;;;;2.00;1.00;;;;;11.96;73.78;101440.50;4998165;28;45323;-54
2023/12/24 01:30:00;;;;;;;;;2.00;2.00;;;;;11.96;73.34;101423.66;4997889;28;45417;-56
2023/12/24 01:32:26;;;;;;;;;1.00;1.00;;;;;11.94;73.43;101430.97;4997583;28;45521;-56
2023/12/24 01:34:51;;;;;;;;;1.00;1.00;;;;;11.90;73.45;101435.72;4996794;28;45653;-55
2023/12/24 01:37:16;;;;;;;;;4.33;2.00;;;;;11.96;73.86;101447.66;4998099;28;45707;-55
2023/12/24 01:39:42;;;;;;;;;2.00;2.00;;;;;11.96;73.41;101440.50;4997446;28;49176;-55
2023/12/24 01:42:07;;;;;;;;;4.00;2.33;;;;;11.97;73.83;101444.03;4998396;28;45467;-52
2023/12/24 01:44:32;;;;;;;;;4.00;1.00;;;;;11.97;73.66;101444.88;4996504;28;45413;-57
2023/12/24 01:46:58;;;;;;;;;3.33;2.00;;;;;11.98;73.47;101448.38;4997832;28;45524;-52
2023/12/24 01:49:23;;;;;;;;;1.00;1.00;;;;;11.95;73.62;101436.16;4997372;28;45413;-53
2023/12/24 01:51:49;;;;;;;;;2.33;1.00;;;;;11.92;73.28;101439.06;4997672;28;45347;-49
2023/12/24 01:54:15;;;;;;;;;1.00;1.00;;;;;11.92;72.72;101448.91;4998001;28;45311;-54
2023/12/24 01:56:41;;;;;;;;;1.00;1.00;;;;;11.90;72.93;101441.06;4997870;28;45414;-49
2023/12/24 01:59:09;;;;;;;;;3.00;1.00;;;;;11.90;72.60;101449.06;4997443;28;45247;-55
2023/12/24 02:01:35;;;;;;;;;1.33;0.33;;;;;11.90;72.61;101442.88;4997548;28;45436;-55
2023/12/24 02:04:00;;;;;;;;;1.00;1.00;;;;;11.90;72.27;101446.38;4997435;28;45378;-55
2023/12/24 02:06:26;;;;;;;;;1.33;1.00;;;;;11.91;72.25;101421.41;4997860;28;45589;-55
2023/12/24 02:08:51;;;;;;;;;1.00;1.00;;;;;11.88;72.33;101407.50;4997359;28;47117;-56
2023/12/24 02:11:17;;;;;;;;;0.00;0.00;;;;;11.89;72.25;101411.88;4997616;28;45362;-55
2023/12/24 02:13:44;;;;;;;;;0.00;0.00;;;;;11.90;72.28;101426.88;4997427;28;45447;-55
2023/12/24 02:16:12;;;;;;;;;0.67;0.67;;;;;11.78;72.61;101391.47;4997382;28;45393;-54
2023/12/24 02:18:38;;;;;;;;;2.33;0.67;;;;;11.88;71.96;101418.16;4996994;28;45335;-55
2023/12/24 02:21:05;;;;;;;;;1.00;1.00;;;;;11.87;72.33;101416.50;4997217;28;45428;-54
2023/12/24 02:23:30;;;;;;;;;1.00;1.00;;;;;11.84;72.50;101412.31;4997222;28;45339;-54
2023/12/24 02:26:01;;;;;;;;;1.00;1.00;;;;;11.84;72.04;101400.75;4997367;28;45378;-56
2023/12/24 02:28:27;;;;;;;;;0.00;0.00;;;;;11.82;72.36;101398.22;4996911;28;46556;-56
2023/12/24 02:30:59;;;;;;;;;0.00;0.00;;;;;11.80;72.04;101389.53;4996909;28;45338;-55
2023/12/24 02:33:30;;;;;;;;;3.67;0.00;;;;;11.80;71.97;101394.88;4996964;28;45299;-56
2023/12/24 02:35:58;;;;;;;;;0.00;0.00;;;;;11.81;72.15;101393.03;4997084;28;45396;-55
2023/12/24 02:38:24;;;;;;;;;2.00;0.33;;;;;11.83;72.22;101404.41;4996848;28;47443;-56
2023/12/24 02:40:49;;;;;;;;;2.00;0.67;;;;;11.81;72.24;101425.03;4996692;28;45342;-56
2023/12/24 02:43:14;;;;;;;;;4.00;1.00;;;;;11.76;72.71;101424.59;4997166;28;45317;-56
2023/12/24 02:45:40;;;;;;;;;1.00;1.00;;;;;11.81;72.51;101435.69;4997525;28;45515;-56
2023/12/24 02:48:06;;;;;;;;;0.33;0.33;;;;;11.81;72.25;101433.03;4995499;28;47300;-56
2023/12/24 02:50:31;;;;;;;;;3.00;1.00;;;;;11.79;72.83;101430.47;4996983;28;45437;-57
2023/12/24 02:52:56;;;;;;;;;2.00;2.00;;;;;11.78;72.35;101428.78;4995769;28;45383;-55
2023/12/24 02:55:22;;;;;;;;;1.00;1.00;;;;;11.71;73.07;101422.31;4997081;28;45444;-56
2023/12/24 02:57:48;;;;;;;;;1.00;1.00;;;;;11.80;72.92;101432.19;4996631;28;45328;-55
2023/12/24 03:00:14;;;;;;;;;2.00;0.00;;;;;11.77;73.17;101407.63;4996610;28;45444;-56
2023/12/24 03:02:39;;;;;;;;;3.00;1.00;;;;;11.78;73.03;101390.63;4996605;28;45249;-54
2023/12/24 03:05:04;;;;;;;;;2.00;1.00;;;;;11.79;72.69;101394.97;4996725;28;45430;-56
2023/12/24 03:07:30;;;;;;;;;0.67;0.67;;;;;11.79;73.05;101398.47;4996519;28;46268;-56
2023/12/24 03:09:55;;;;;;;;;1.00;1.00;;;;;11.82;72.67;101416.03;4996595;28;45388;-56
2023/12/24 03:12:20;;;;;;;;;1.00;1.00;;;;;11.78;72.77;101391.47;4996576;28;46517;-56
2023/12/24 03:14:46;;;;;;;;;1.00;1.00;;;;;11.78;73.36;101391.47;4997094;28;45373;-55
2023/12/24 03:17:11;;;;;;;;;1.33;1.33;;;;;11.78;73.23;101382.66;4996323;28;46430;-57
2023/12/24 03:19:36;;;;;;;;;0.33;0.33;;;;;11.79;72.88;101387.00;4994809;28;45401;-51
2023/12/24 03:22:03;;;;;;;;;0.00;0.00;;;;;11.78;73.00;101385.31;4996591;28;45425;-55
2023/12/24 03:24:28;;;;;;;;;0.00;0.00;;;;;11.73;73.21;101380.41;4996478;28;45441;-53
2023/12/24 03:26:54;;;;;;;;;2.67;1.00;;;;;11.79;72.76;101397.66;4996153;28;45491;-55
2023/12/24 03:29:19;;;;;;;;;2.00;1.00;;;;;11.77;72.78;101402.28;4996277;28;45342;-54
2023/12/24 03:31:44;;;;;;;;;0.33;0.00;;;;;11.76;72.81;101381.97;4996412;28;45394;-55
2023/12/24 03:34:10;;;;;;;;;0.00;0.00;;;;;11.76;72.75;101371.28;4996632;28;45356;-53
2023/12/24 03:36:35;;;;;;;;;0.00;0.00;;;;;11.71;73.13;101353.91;4994696;28;47177;-51
2023/12/24 03:39:01;;;;;;;;;1.00;1.00;;;;;11.64;73.38;101339.44;4996176;28;45381;-56
2023/12/24 03:41:26;;;;;;;;;0.00;0.00;;;;;11.66;73.58;101350.78;4996409;28;45482;-56
2023/12/24 03:43:51;;;;;;;;;0.33;0.33;;;;;11.69;73.84;101342.50;4996115;28;45499;-55
2023/12/24 03:46:21;;;;;;;;;0.00;0.00;;;;;11.57;73.44;101319.63;4996064;28;46019;-53
2023/12/24 03:48:46;;;;;;;;;1.00;1.00;;;;;11.68;73.62;101334.66;4995974;28;45640;-54
2023/12/24 03:51:12;;;;;;;;;0.00;0.00;;;;;11.66;73.22;101344.63;4996055;28;45386;-53
2023/12/24 03:53:38;;;;;;;;;0.00;0.00;;;;;11.55;73.28;101329.59;4996271;28;45314;-54
2023/12/24 03:56:09;;;;;;;;;0.00;0.00;;;;;11.63;73.74;101352.88;4996066;28;45403;-55
2023/12/24 03:58:34;;;;;;;;;0.00;0.00;;;;;11.65;73.80;101365.09;4999303;28;45335;-55
2023/12/24 04:00:59;;;;;;;;;0.00;0.00;;;;;11.63;73.25;101371.53;4999222;28;45507;-55
2023/12/24 04:03:25;;;;;;;;;0.00;0.00;;;;;11.62;73.35;101359.19;4999608;28;45394;-55
2023/12/24 04:05:50;;;;;;;;;0.00;0.00;;;;;11.60;73.74;101350.50;4998985;28;51984;-55
2023/12/24 04:08:15;;;;;;;;;1.00;1.00;;;;;11.61;73.66;101363.69;4999269;28;45389;-54
2023/12/24 04:10:42;;;;;;;;;0.00;0.00;;;;;11.60;73.71;101366.50;4999418;28;45378;-49
2023/12/24 04:13:07;;;;;;;;;0.67;0.67;;;;;11.59;73.74;101362.16;4999405;28;45370;-53
2023/12/24 04:15:33;;;;;;;;;1.67;1.00;;;;;11.59;73.64;101365.66;4998906;28;46385;-52
2023/12/24 04:17:59;;;;;;;;;0.33;0.00;;;;;11.53;74.03;101362.69;4999227;28;45390;-54
2023/12/24 04:20:24;;;;;;;;;0.00;0.00;;;;;11.57;73.82;101348.94;4997665;28;45285;-55
2023/12/24 04:22:50;;;;;;;;;0.33;0.33;;;;;11.53;73.57;101334.22;4999407;28;45270;-55
2023/12/24 04:25:15;;;;;;;;;1.00;1.00;;;;;11.56;73.45;101330.44;4999079;28;45406;-53
2023/12/24 04:27:40;;;;;;;;;1.00;1.00;;;;;11.51;73.97;101314.88;4998787;28;48522;-55
2023/12/24 04:30:06;;;;;;;;;1.00;0.67;;;;;11.43;73.84;101304.06;4999004;28;45455;-55
2023/12/24 04:32:32;;;;;;;;;4.00;0.00;;;;;11.50;73.54;101305.19;4999050;28;45512;-54
2023/12/24 04:34:58;;;;;;;;;1.33;1.00;;;;;11.47;73.40;101293.00;4998709;28;46140;-54
2023/12/24 04:37:23;;;;;;;;;1.67;1.33;;;;;11.49;73.61;101306.16;4998976;28;45311;-49
2023/12/24 04:39:49;;;;;;;;;1.00;1.00;;;;;11.47;73.35;101287.66;4998585;28;45384;-52
2023/12/24 04:42:14;;;;;;;;;1.00;1.00;;;;;11.46;73.93;101283.31;4997778;28;45373;-52
2023/12/24 04:44:39;;;;;;;;;1.00;1.00;;;;;11.43;73.91;101274.78;4998584;28;47335;-52
2023/12/24 04:47:07;;;;;;;;;1.00;1.00;;;;;11.39;73.93;101286.69;4998537;28;45497;-53
2023/12/24 04:49:33;;;;;;;;;0.00;0.00;;;;;11.32;74.23;101282.88;4998538;28;45338;-54
2023/12/24 04:51:59;;;;;;;;;1.00;1.00;;;;;11.28;74.16;101281.47;4998671;28;45341;-55
2023/12/24 04:54:28;;;;;;;;;1.00;1.00;;;;;11.18;74.15;101261.00;4998253;28;47099;-55
2023/12/24 04:56:53;;;;;;;;;1.00;1.00;;;;;11.13;74.63;101279.22;4998339;28;45422;-54
2023/12/24 04:59:18;;;;;;;;;1.33;1.00;;;;;11.10;74.96;101291.97;4998382;28;45295;-52
2023/12/24 05:01:44;;;;;;;;;1.00;1.00;;;;;11.06;75.28;101287.88;4998772;28;45245;-50
2023/12/24 05:04:09;;;;;;;;;2.00;0.33;;;;;11.02;74.95;101292.63;4998336;28;45331;-52
2023/12/24 05:06:35;;;;;;;;;2.67;0.33;;;;;10.99;75.33;101287.56;4998073;28;46306;-54
2023/12/24 05:09:00;;;;;;;;;3.00;1.00;;;;;10.88;75.42;101279.72;4998361;28;45365;-54
2023/12/24 05:11:25;;;;;;;;;0.00;0.00;;;;;10.94;75.56;101285.31;4998361;28;45505;-53
2023/12/24 05:13:51;;;;;;;;;1.00;1.00;;;;;10.93;75.26;101298.78;4997958;28;49765;-55
2023/12/24 05:16:16;;;;;;;;;1.00;1.00;;;;;10.89;75.78;101305.34;4998207;28;45334;-54
2023/12/24 05:18:42;;;;;;;;;3.00;1.00;;;;;10.90;75.88;101307.03;4998358;28;45339;-54
2023/12/24 05:21:07;;;;;;;;;1.00;1.00;;;;;10.90;75.30;101307.03;4998141;28;45434;-54
2023/12/24 05:23:32;;;;;;;;;2.67;1.33;;;;;10.90;75.78;101317.66;4997704;28;45448;-54
2023/12/24 05:25:58;;;;;;;;;7.67;1.00;;;;;10.88;75.63;101312.50;4998127;28;45348;-54
2023/12/24 05:28:23;;;;;;;;;1.00;1.00;;;;;10.89;75.47;101308.84;4998343;28;45512;-54
2023/12/24 05:30:49;;;;;;;;;1.00;1.00;;;;;10.93;75.47;101323.56;4998680;28;45573;-53
2023/12/24 05:33:14;;;;;;;;;4.00;0.00;;;;;10.99;75.10;101317.69;4997913;28;46028;-55
2023/12/24 05:35:39;;;;;;;;;8.33;1.00;;;;;11.02;75.46;101287.31;4997611;28;45559;-50
2023/12/24 05:38:05;;;;;;;;;2.00;2.00;;;;;11.06;74.81;101299.38;4997990;28;45319;-54
2023/12/24 05:40:30;;;;;;;;;6.00;2.00;;;;;11.03;74.92;101273.00;4998059;28;45362;-53
2023/12/24 05:42:55;;;;;;;;;1.67;1.67;;;;;11.12;74.59;101280.16;4997673;28;46283;-51
2023/12/24 05:45:21;;;;;;;;;2.33;2.00;;;;;11.16;74.72;101278.91;4997834;28;45346;-55
2023/12/24 05:47:46;;;;;;;;;1.00;1.00;;;;;11.17;74.61;101275.31;4998129;28;45288;-52
2023/12/24 05:50:12;;;;;;;;;3.67;2.33;;;;;11.19;74.46;101262.69;4997855;28;45307;-53
2023/12/24 05:52:37;;;;;;;;;4.33;2.33;;;;;11.23;74.87;101268.56;4997640;28;46321;-54
2023/12/24 05:55:04;;;;;;;;;3.00;0.00;;;;;11.03;74.38;101230.41;4997612;28;45386;-51
2023/12/24 05:57:29;;;;;;;;;5.00;2.00;;;;;11.20;74.50;101251.03;4997571;28;45372;-52
2023/12/24 05:59:54;;;;;;;;;1.00;1.00;;;;;11.20;74.92;101252.84;4997832;28;45423;-54
2023/12/24 06:02:20;;;;;;;;;2.00;1.67;;;;;11.18;74.54;101237.03;4997376;28;45980;-53
2023/12/24 06:04:45;;;;;;;;;3.00;3.00;;;;;11.22;74.75;101245.59;4997621;28;45921;-52
2023/12/24 06:07:11;;;;;;;;;3.00;1.00;;;;;11.26;74.77;101243.50;4997383;28;45343;-53
2023/12/24 06:09:37;;;;;;;;;1.00;1.00;;;;;11.23;74.67;101240.13;4997670;28;45416;-52
2023/12/24 06:12:03;;;;;;;;;5.00;3.00;;;;;11.15;74.68;101226.66;4997381;28;46862;-54
2023/12/24 06:14:29;;;;;;;;;5.00;3.00;;;;;11.28;75.25;101242.34;4997404;28;45406;-52
2023/12/24 06:16:54;;;;;;;;;2.67;2.67;;;;;11.26;75.20;101239.00;4997366;28;45331;-54
2023/12/24 06:19:19;;;;;;;;;2.33;2.00;;;;;11.23;75.21;101240.13;4996731;28;45225;-52
2023/12/24 06:21:45;;;;;;;;;2.00;2.00;;;;;11.22;74.99;101238.44;4996863;28;46243;-53
2023/12/24 06:24:10;;;;;;;;;1.00;1.00;;;;;11.24;75.36;101227.63;4995950;28;45663;-54
2023/12/24 06:26:35;;;;;;;;;1.33;1.00;;;;;11.20;74.88;101221.75;4997111;28;45319;-50
2023/12/24 06:29:01;;;;;;;;;1.33;1.00;;;;;11.23;74.77;101236.63;4997391;28;45335;-53
2023/12/24 06:31:26;;;;;;;;;1.00;1.00;;;;;11.22;74.94;101235.78;4996813;28;46019;-52
2023/12/24 06:33:51;;;;;;;;;5.33;2.33;;;;;11.20;74.84;101243.03;4996910;28;45345;-55
2023/12/24 06:36:17;;;;;;;;;6.00;1.00;;;;;11.13;75.19;101233.94;4996695;28;46573;-52
2023/12/24 06:38:43;;;;;;;;;4.00;2.00;;;;;11.22;75.50;101251.75;4997295;28;45230;-50
2023/12/24 06:41:09;;;;;;;;;2.00;2.00;;;;;11.23;75.03;101253.44;4996566;28;46342;-51
2023/12/24 06:43:35;;;;;;;;;1.33;0.00;;;;;11.23;75.03;101241.94;4996872;28;45449;-52
2023/12/24 06:46:01;;;;;;;;;1.00;0.00;;;;;11.24;75.14;101240.94;4996922;28;45477;-53
2023/12/24 06:48:26;;;;;;;;;6.00;2.00;;;;;11.24;74.85;101238.28;4997010;28;45396;-52
2023/12/24 06:50:51;;;;;;;;;1.33;1.00;;;;;11.24;75.37;101241.78;4996409;28;45981;-54
2023/12/24 06:53:17;;;;;;;;;1.33;0.00;;;;;11.26;75.20;101232.84;4996763;28;45315;-54
2023/12/24 06:55:42;;;;;;;;;4.00;1.00;;;;;11.25;75.25;101240.00;4996516;28;46610;-54
2023/12/24 06:58:07;;;;;;;;;1.33;1.33;;;;;11.21;75.61;101234.09;4996695;28;45564;-54
2023/12/24 07:00:33;;;;;;;;;4.00;1.00;;;;;11.24;75.02;101233.81;4996763;28;45330;-54
2023/12/24 07:02:59;;;;;;;;;2.00;1.00;;;;;11.24;75.50;101236.47;4996746;28;45474;-51
2023/12/24 07:05:24;;;;;;;;;2.33;1.33;;;;;11.27;75.47;101237.19;4996626;28;45341;-49
2023/12/24 07:07:50;;;;;;;;;1.00;1.00;;;;;11.26;75.31;101235.50;4996680;28;45536;-53
2023/12/24 07:10:15;;;;;;;;;3.67;1.00;;;;;11.24;75.25;101248.94;4996414;28;46943;-50
2023/12/24 07:12:40;;;;;;;;;4.00;0.00;;;;;11.15;75.64;101231.13;4996541;28;45274;-52
2023/12/24 07:15:06;;;;;;;;;3.00;1.67;;;;;11.27;75.69;101250.50;4996399;28;45290;-48
2023/12/24 07:17:32;;;;;;;;;3.00;1.33;;;;;11.27;75.48;101245.16;4996773;28;45545;-51
2023/12/24 07:19:57;;;;;;;;;2.00;1.00;;;;;11.27;75.60;101237.19;4996013;28;45349;-51
2023/12/24 07:22:23;;;;;;;;;3.67;2.00;;;;;11.25;75.91;101245.31;4996050;28;45680;-50
2023/12/24 07:24:48;;;;;;;;;2.00;1.00;;;;;11.29;75.95;101248.53;4996512;28;45344;-52
2023/12/24 07:27:14;;;;;;;;;2.33;1.00;;;;;11.27;76.26;101247.84;4996588;28;45219;-49
2023/12/24 07:29:42;;;;;;;;;7.33;2.00;;;;;11.27;76.01;101243.34;4996617;28;45287;-52
2023/12/24 07:32:08;;;;;;;;;3.33;2.33;;;;;11.23;76.01;101236.63;4997636;28;45472;-51
2023/12/24 07:34:34;;;;;;;;;3.00;1.67;;;;;11.27;76.30;101238.03;4999662;28;45409;-52
2023/12/24 07:36:59;;;;;;;;;1.00;1.00;;;;;11.24;76.48;101233.81;4999796;28;45846;-51
2023/12/24 07:39:25;;;;;;;;;3.00;1.33;;;;;11.28;76.17;101246.84;4999402;28;46280;-52
2023/12/24 07:41:50;;;;;;;;;2.67;2.67;;;;;11.27;76.58;101234.53;4999566;28;45493;-51
2023/12/24 07:44:15;;;;;;;;;1.67;1.00;;;;;11.18;76.60;101217.56;4999822;28;45287;-53
2023/12/24 07:46:41;;;;;;;;;4.67;1.00;;;;;11.24;76.83;101235.63;4999816;28;45230;-51
2023/12/24 07:49:06;;;;;;;;;3.00;2.00;;;;;11.26;77.13;101243.50;4999396;28;46416;-52
2023/12/24 07:51:33;;;;;;;;;0.67;0.33;;;;;11.24;77.28;101235.63;4999590;28;45488;-52
2023/12/24 07:53:59;;;;;;;;;1.00;1.00;;;;;11.22;77.11;101240.25;4999433;28;45390;-52
2023/12/24 07:56:24;;;;;;;;;4.67;1.00;;;;;11.26;77.78;101243.50;4999844;28;45593;-51
2023/12/24 07:58:49;;;;;;;;;6.00;1.00;;;;;11.27;77.20;101243.34;4999045;28;47285;-50
2023/12/24 08:01:15;;;;;;;;;2.67;1.00;;;;;10.93;77.73;101176.34;4999278;28;45374;-49
2023/12/24 08:03:40;;;;;;;;;1.00;1.00;;;;;11.28;77.97;101241.53;4999384;28;45343;-52
2023/12/24 08:06:06;;;;;;;;;1.00;1.00;;;;;11.28;77.12;101237.03;4999716;28;45365;-50
2023/12/24 08:08:31;;;;;;;;;5.33;2.00;;;;;11.24;77.68;101230.28;4999216;28;45928;-53
2023/12/24 08:10:57;;;;;;;;;2.00;1.00;;;;;11.26;78.26;101238.16;4999130;28;45515;-52
2023/12/24 08:13:22;;;;;;;;;1.00;1.00;;;;;11.28;78.05;101236.19;4999461;28;45489;-51
2023/12/24 08:15:48;;;;;;;;;2.67;2.33;;;;;11.30;77.88;101240.41;4999348;28;45353;-52
2023/12/24 08:18:14;;;;;;;;;1.67;1.33;;;;;11.31;78.06;101242.09;4998964;28;46860;-50
2023/12/24 08:20:39;;;;;;;;;2.67;1.00;;;;;11.33;77.36;101247.25;4999077;28;45374;-53
2023/12/24 08:23:07;;;;;;;;;2.00;1.00;;;;;11.34;77.66;101246.31;4998931;28;45478;-53
2023/12/24 08:25:32;;;;;;;;;2.33;2.00;;;;;11.27;77.40;101224.69;4999197;28;45490;-51
2023/12/24 08:27:59;;;;;;;;;2.67;1.00;;;;;11.37;77.70;101256.66;4998932;28;46072;-49
2023/12/24 08:30:25;;;;;;;;;5.33;2.00;;;;;11.38;77.69;101247.72;4998687;28;45455;-50
2023/12/24 08:32:50;;;;;;;;;2.00;2.00;;;;;11.38;76.94;101263.69;4998859;28;45426;-50
2023/12/24 08:35:16;;;;;;;;;6.67;2.67;;;;;11.42;77.02;101263.28;4998706;28;45374;-52
2023/12/24 08:37:41;;;;;;;;;3.33;2.33;;;;;11.43;76.74;101258.78;4997289;28;46291;-51
2023/12/24 08:40:07;;;;;;;;;2.00;2.00;;;;;11.48;76.43;101262.69;4997491;28;45414;-50
2023/12/24 08:42:33;;;;;;;;;4.00;2.67;;;;;11.48;76.44;101260.03;4997290;28;45350;-55
2023/12/24 08:44:58;;;;;;;;;4.33;2.33;;;;;11.47;76.89;101262.84;4997837;28;45302;-53
2023/12/24 08:47:23;;;;;;;;;2.00;2.00;;;;;11.49;76.90;101258.22;4997242;28;46118;-53
2023/12/24 08:49:48;;;;;;;;;7.33;3.00;;;;;11.55;76.25;101262.16;4997507;28;45397;-50
2023/12/24 08:52:14;;;;;;;;;4.33;2.67;;;;;11.56;76.06;101262.00;4997414;28;45437;-49
2023/12/24 08:54:39;;;;;;;;;4.00;2.00;;;;;11.54;75.78;101266.63;4997641;28;45416;-52
2023/12/24 08:57:06;;;;;;;;;2.00;2.00;;;;;11.61;75.70;101250.94;4997443;28;46291;-52
2023/12/24 08:59:32;;;;;;;;;6.00;2.33;;;;;11.60;76.26;101271.41;4997277;28;45263;-55
2023/12/24 09:01:57;;;;;;;;;4.67;3.00;;;;;11.61;76.03;101264.25;4997281;28;45278;-54
2023/12/24 09:04:22;;;;;;;;;4.00;1.00;;;;;11.62;75.90;101269.44;4997493;28;45415;-53
2023/12/24 09:06:48;;;;;;;;;4.33;1.00;;;;;11.66;75.86;101257.50;4997262;28;45260;-54
2023/12/24 09:09:13;;;;;;;;;1.67;0.33;;;;;11.66;75.81;101262.00;4997127;28;45236;-54
2023/12/24 09:11:38;;;;;;;;;6.00;1.00;;;;;11.70;75.85;101264.22;4996888;28;45341;-53
2023/12/24 09:14:04;;;;;;;;;1.33;0.00;;;;;11.71;75.74;101267.75;4997212;28;45373;-54
2023/12/24 09:16:29;;;;;;;;;2.67;1.33;;;;;11.76;75.37;101265.50;4995792;28;45369;-52
2023/12/24 09:18:54;;;;;;;;;2.00;1.67;;;;;11.77;75.31;101274.34;4996887;28;45397;-51
2023/12/24 09:21:20;;;;;;;;;6.00;2.00;;;;;11.86;75.12;101274.38;4996672;28;45396;-52
2023/12/24 09:23:45;;;;;;;;;2.33;2.33;;;;;11.85;74.76;101275.34;4997104;28;45977;-51
2023/12/24 09:26:11;;;;;;;;;1.00;1.00;;;;;11.84;75.08;101270.16;4996611;28;46078;-54
2023/12/24 09:28:36;;;;;;;;;1.00;1.00;;;;;11.92;75.38;101276.44;4996849;28;45496;-52
2023/12/24 09:31:01;;;;;;;;;4.33;2.00;;;;;11.97;74.61;101284.88;4997247;28;45364;-51
2023/12/24 09:33:27;;;;;;;;;2.33;0.00;;;;;12.02;74.62;101270.28;4997259;28;45402;-56
2023/12/24 09:35:52;;;;;;;;;7.67;2.33;;;;;12.04;74.81;101282.47;4957238;28;1142242;-52
2023/12/24 09:38:17;;;;;;;;;6.00;2.00;;;;;12.05;74.73;101269.97;4996587;28;45559;-55
2023/12/24 09:40:43;;;;;;;;;2.00;0.33;;;;;11.98;74.67;101265.22;4998139;28;45292;-55
2023/12/24 09:43:08;;;;;;;;;8.67;2.33;;;;;12.06;74.19;101267.19;4997131;28;45303;-53
2023/12/24 09:45:34;;;;;;;;;2.00;2.00;;;;;12.09;74.63;101274.88;4998335;28;46238;-55
2023/12/24 09:48:00;;;;;;;;;3.00;1.33;;;;;12.13;74.09;101278.09;4997987;28;45402;-53
2023/12/24 09:50:26;;;;;;;;;2.67;2.67;;;;;12.19;74.29;101269.53;4997750;28;45311;-54
2023/12/24 09:52:53;;;;;;;;;6.33;2.67;;;;;12.27;73.55;101258.16;4997121;28;45450;-53
2023/12/24 09:55:18;;;;;;;;;1.67;1.00;;;;;12.36;73.48;101266.13;4997338;28;45645;-55
2023/12/24 09:57:43;;;;;;;;;8.00;3.00;;;;;12.41;73.06;101271.00;4998072;28;45348;-55
2023/12/24 10:00:10;;;;;;;;;4.00;2.00;;;;;12.44;73.09;101260.06;4997885;28;45334;-53
2023/12/24 10:02:36;;;;;;;;;2.00;2.00;;;;;12.46;72.82;101260.75;4996936;28;45546;-53
2023/12/24 10:05:03;;;;;;;;;3.00;3.00;;;;;12.41;72.95;101258.50;4997546;28;45404;-52
2023/12/24 10:07:38;;;;;;;;;3.33;2.00;;;;;12.37;73.14;101250.94;4997312;28;45468;-56
2023/12/24 10:10:04;;;;;;;;;2.00;2.00;;;;;12.48;73.38;101272.97;4997531;28;45335;-55
2023/12/24 10:12:29;;;;;;;;;3.33;1.67;;;;;12.50;72.85;101264.78;4997688;28;45421;-56
2023/12/24 10:14:57;;;;;;;;;7.33;3.00;;;;;12.48;72.51;101277.47;4997413;28;47129;-54
2023/12/24 10:17:34;;;;;;;;;2.50;1.00;;;;;12.43;72.92;101275.22;4996401;28;45351;-56
2023/12/24 10:20:02;;;;;;;;;2.33;1.00;;;;;12.45;73.02;101283.06;4997365;28;45480;-55
2023/12/24 10:22:28;;;;;;;;;6.00;3.67;;;;;12.43;73.24;101279.69;4997344;28;45423;-56
2023/12/24 10:25:06;;;;;;;;;4.67;3.33;;;;;12.45;73.13;101272.41;4997072;28;46137;-56
2023/12/24 10:27:32;;;;;;;;;3.33;1.67;;;;;12.46;73.17;101274.91;4997239;28;45349;-56
2023/12/24 10:30:12;;;;;;;;;3.67;2.00;;;;;12.47;73.14;101267.75;4997626;28;45422;-54
2023/12/24 10:32:39;;;;;;;;;4.67;2.00;;;;;12.57;73.02;101268.56;4997693;28;45311;-55
2023/12/24 10:35:05;;;;;;;;;3.67;2.00;;;;;12.59;72.76;101258.56;4996971;28;46835;-55
2023/12/24 10:37:30;;;;;;;;;4.00;1.33;;;;;12.59;72.62;101258.56;4996772;28;45280;-55
2023/12/24 10:40:09;;;;;;;;;5.33;4.33;;;;;12.59;72.91;101253.22;4997154;28;45531;-56
2023/12/24 10:42:38;;;;;;;;;6.33;2.00;;;;;12.55;72.78;101240.34;4997347;28;45421;-56
2023/12/24 10:45:07;;;;;;;;;6.67;2.00;;;;;12.56;72.82;101258.06;4996767;28;46032;-54
2023/12/24 10:47:35;;;;;;;;;6.33;1.33;;;;;12.66;72.79;101262.34;5012148;28;46354;-56
2023/12/24 10:50:02;;;;;;;;;6.33;3.00;;;;;12.73;72.69;101262.59;4997403;28;45454;-56
2023/12/24 10:52:28;;;;;;;;;6.00;2.00;;;;;12.85;71.89;101245.41;4996660;28;45381;-56
2023/12/24 10:54:55;;;;;;;;;2.67;1.67;;;;;13.01;72.36;101246.56;4996439;28;47220;-54
2023/12/24 10:58:04;;;;;;;;;5.00;3.00;;;;;13.11;71.85;101252.69;4996539;28;45355;-52
2023/12/24 11:00:29;;;;;;;;;4.00;4.00;;;;;13.13;71.52;101251.53;4996720;28;45365;-55
2023/12/24 11:02:55;;;;;;;;;2.00;2.00;;;;;13.05;71.24;101237.25;4996834;28;45461;-53
2023/12/24 11:05:42;;;;;;;;;4.00;2.67;;;;;13.08;71.41;101248.47;4996486;28;45192;-49
2023/12/24 11:08:22;;;;;;;;;2.00;2.00;;;;;13.03;71.37;101239.25;4996058;28;45441;-54
2023/12/24 11:10:55;;;;;;;;;5.00;2.00;;;;;12.98;71.54;101229.03;4996830;28;45360;-55
2023/12/24 11:13:33;;;;;;;;;6.67;2.67;;;;;12.97;71.86;101230.81;4996756;28;45570;-55
2023/12/24 11:15:59;;;;;;;;;4.00;3.00;;;;;12.95;71.73;101216.78;4996324;28;46168;-55
2023/12/24 11:18:41;;;;;;;;;7.00;2.00;;;;;12.91;71.95;101226.09;4996150;28;45347;-55